Time;durP1;ratioP1;P1;durP2;ratioP2;P2;SDS_P1;SDS_P2;PMS_P1;PMS_P2;Temp;Humidity;BMP_temperature;BMP_pressure;BME280_temperature;BME280_humidity;BME280_pressure;Samples;Min_cycle;Max_cycle;Signal;HPM_P1;HPM_P2
2022/07/27 00:00:08;;;;;;;0.57;0.40;;;25.00;98.70;;;;;;21149039;28;20227;-71
2022/07/27 00:10:14;;;;;;;0.60;0.40;;;;;;;;;;21155114;28;20222;-71
2022/07/27 00:20:16;;;;;;;0.73;0.40;;;;;;;;;;21123794;22;20234;-71
2022/07/27 00:30:17;;;;;;;0.82;0.43;;;;;;;;;;20938214;28;20565;-72
2022/07/27 00:40:19;;;;;;;0.60;0.50;;;;;;;;;;20908140;28;20294;-71
2022/07/27 00:50:21;;;;;;;0.20;0.20;;;;;;;;;;20912807;28;20240;-71
2022/07/27 01:00:22;;;;;;;0.40;0.38;;;;;;;;;;20941801;28;20599;-71
2022/07/27 01:10:24;;;;;;;0.70;0.40;;;;;;;;;;20922468;28;20264;-71
2022/07/27 01:20:26;;;;;;;0.32;0.30;;;;;;;;;;20916383;28;20224;-72
2022/07/27 01:30:31;;;;;;;0.28;0.28;;;;;;;;;;20916188;28;20222;-71
2022/07/27 01:40:35;;;;;;;0.65;0.43;;;;;;;;;;20914717;28;20206;-71
2022/07/27 01:50:38;;;;;;;0.55;0.30;;;;;;;;;;20930183;28;20202;-71
2022/07/27 02:00:39;;;;;;;1.00;0.30;;;23.30;92.00;;;;;;20918798;28;20745;-72
2022/07/27 02:12:34;;;;;;;0.52;0.30;;;;;;;;;;20919144;28;20209;-71
2022/07/27 02:21:04;;;;;;;0.80;0.38;;;23.10;99.60;;;;;;20912269;28;20226;-72
2022/07/27 02:31:06;;;;;;;1.05;0.40;;;;;;;;;;20911244;28;20270;-72
2022/07/27 02:41:08;;;;;;;0.98;0.32;;;;;;;;;;20911575;28;20205;-72
2022/07/27 02:51:10;;;;;;;0.65;0.30;;;;;;;;;;20907737;28;20277;-72
2022/07/27 03:01:11;;;;;;;0.60;0.50;;;;;;;;;;20909132;28;20571;-73
2022/07/27 03:11:15;;;;;;;0.35;0.28;;;22.80;99.90;;;;;;20908361;28;20217;-73
2022/07/27 03:21:16;;;;;;;0.28;0.20;;;;;;;;;;20889227;28;20306;-72
2022/07/27 03:31:18;;;;;;;0.30;0.30;;;;;;;;;;20907119;28;20211;-71
2022/07/27 03:41:20;;;;;;;2.67;0.30;;;;;;;;;;20904857;28;20211;-73
2022/07/27 03:51:21;;;;;;;0.52;0.30;;;;;;;;;;20941392;28;20589;-77
2022/07/27 04:01:24;;;;;;;1.02;0.60;;;;;;;;;;20913683;28;20218;-75
2022/07/27 04:11:25;;;;;;;2.50;0.47;;;;;;;;;;20903939;28;20213;-74
2022/07/27 04:21:27;;;;;;;0.30;0.22;;;;;;;;;;20902768;28;20289;-75
2022/07/27 04:31:29;;;;;;;0.38;0.20;;;22.30;99.90;;;;;;20904897;28;20219;-75
2022/07/27 04:41:31;;;;;;;1.00;0.30;;;;;;;;;;20918485;28;20196;-75
2022/07/27 04:51:35;;;;;;;1.10;0.40;;;;;;;;;;20919401;28;20214;-76
2022/07/27 05:01:37;;;;;;;1.20;0.40;;;;;;;;;;20926328;28;20641;-75
2022/07/27 05:11:38;;;;;;;0.20;0.20;;;;;;;;;;20918138;28;20227;-75
2022/07/27 05:21:40;;;;;;;0.52;0.30;;;;;;;;;;20946044;28;20779;-75
2022/07/27 05:31:42;;;;;;;0.85;0.32;;;;;;;;;;20918898;28;20225;-73
2022/07/27 05:41:44;;;;;;;0.75;0.30;;;;;;;;;;20913285;28;20228;-73
2022/07/27 05:51:45;;;;;;;0.35;0.30;;;;;;;;;;20913009;28;20224;-73
2022/07/27 06:01:47;;;;;;;1.15;0.28;;;;;;;;;;20928700;28;20198;-72
2022/07/27 06:11:49;;;;;;;0.73;0.22;;;;;;;;;;20920940;28;20259;-73
2022/07/27 06:21:50;;;;;;;0.70;0.30;;;;;;;;;;20998072;22;20232;-71
2022/07/27 06:31:52;;;;;;;1.25;0.43;;;;;;;;;;21133868;28;20261;-70
2022/07/27 06:41:54;;;;;;;2.25;0.60;;;;;;;;;;21159645;28;20210;-70
2022/07/27 06:51:55;;;;;;;0.82;0.35;;;;;;;;;;21127105;28;20216;-69
2022/07/27 07:01:57;;;;;;;1.42;0.30;;;;;;;;;;21072085;28;20245;-70
2022/07/27 07:11:59;;;;;;;0.40;0.35;;;;;;;;;;21074210;28;20222;-69
2022/07/27 07:22:00;;;;;;;0.32;0.30;;;;;;;;;;21072244;28;20786;-69
2022/07/27 07:32:02;;;;;;;0.43;0.38;;;;;;;;;;21073695;28;20206;-69
2022/07/27 07:42:04;;;;;;;0.63;0.30;;;;;;;;;;21086226;28;20207;-69
2022/07/27 07:52:06;;;;;;;1.38;0.40;;;23.10;95.60;;;;;;21070209;28;20220;-69
2022/07/27 08:02:08;;;;;;;1.27;0.45;;;;;;;;;;21071374;28;20215;-70
2022/07/27 08:12:10;;;;;;;0.85;0.40;;;;;;;;;;21068860;28;20646;-70
2022/07/27 08:22:11;;;;;;;1.67;0.50;;;;;;;;;;21068615;28;20827;-72
2022/07/27 08:32:13;;;;;;;0.95;0.30;;;;;;;;;;21069978;28;20683;-71
2022/07/27 08:42:16;;;;;;;0.90;0.50;;;24.20;98.70;;;;;;21084120;28;20212;-71
2022/07/27 08:52:19;;;;;;;1.60;0.30;;;24.00;95.10;;;;;;21068341;28;20705;-72
2022/07/27 09:02:22;;;;;;;1.48;0.55;;;;;;;;;;21082913;28;20623;-72
2022/07/27 09:12:28;;;;;;;1.42;0.45;;;23.40;99.90;;;;;;21032445;28;20453;-72
2022/07/27 09:22:45;;;;;;;2.15;0.50;;;23.40;89.80;;;;;;21036585;28;20281;-71
2022/07/27 09:32:55;;;;;;;0.60;0.28;;;;;;;;;;21081764;28;20221;-72
2022/07/27 09:43:11;;;;;;;2.38;0.50;;;23.00;98.80;;;;;;21081148;28;20261;-71
2022/07/27 09:53:13;;;;;;;0.88;0.50;;;;;;;;;;21081218;28;20214;-71
2022/07/27 10:03:15;;;;;;;0.98;0.40;;;;;;;;;;21061961;28;20270;-72
2022/07/27 10:13:16;;;;;;;0.63;0.38;;;23.60;92.70;;;;;;21079577;28;20214;-72
2022/07/27 10:23:28;;;;;;;1.08;0.40;;;23.70;99.40;;;;;;21076982;28;20641;-71
2022/07/27 10:33:45;;;;;;;1.30;0.45;;;;;;;;;;21060985;28;20247;-70
2022/07/27 10:43:49;;;;;;;2.40;0.38;;;;;;;;;;21076228;28;20609;-71
2022/07/27 10:53:51;;;;;;;1.15;0.30;;;;;;;;;;21075425;28;20640;-71
2022/07/27 11:03:52;;;;;;;2.33;0.52;;;24.60;88.50;;;;;;21058521;28;20260;-71
2022/07/27 11:13:56;;;;;;;1.50;0.40;;;;;;;;;;21073356;28;20278;-71
2022/07/27 11:24:01;;;;;;;1.30;0.45;;;;;;;;;;21072107;28;20230;-67
2022/07/27 11:34:03;;;;;;;0.80;0.40;;;24.90;92.40;;;;;;21071613;28;20235;-71
2022/07/27 11:44:10;;;;;;;0.55;0.40;;;24.90;91.50;;;;;;21071242;28;20263;-70
2022/07/27 11:54:18;;;;;;;0.95;0.50;;;;;;;;;;21053923;28;20232;-69
2022/07/27 12:04:21;;;;;;;1.08;0.50;;;;;;;;;;21068529;28;20221;-70
2022/07/27 12:14:33;;;;;;;2.33;0.50;;;25.60;82.40;;;;;;21067078;28;20706;-70
2022/07/27 12:25:06;;;;;;;1.27;0.63;;;;;;;;;;21066682;28;20242;-70
2022/07/27 12:35:24;;;;;;;4.15;0.70;;;26.70;85.50;;;;;;21069450;28;20207;-70
2022/07/27 12:45:33;;;;;;;2.90;0.60;;;26.80;84.60;;;;;;21068901;28;20257;-70
2022/07/27 12:55:36;;;;;;;1.20;0.40;;;27.10;82.30;;;;;;21067747;28;20215;-70
2022/07/27 13:05:38;;;;;;;2.13;0.52;;;;;;;;;;21083490;28;20249;-70
2022/07/27 13:15:40;;;;;;;1.00;0.30;;;;;;;;;;21082961;28;20690;-71
2022/07/27 13:25:42;;;;;;;2.75;0.82;;;;;;;;;;21081232;28;20244;-70
2022/07/27 13:35:46;;;;;;;0.65;0.32;;;;;;;;;;21082798;28;20230;-71
2022/07/27 13:45:48;;;;;;;2.05;0.65;;;;;;;;;;21051311;28;20574;-70
2022/07/27 13:55:49;;;;;;;1.33;0.38;;;;;;;;;;21070279;28;20571;-69
2022/07/27 14:05:52;;;;;;;1.25;0.40;;;;;;;;;;21077052;28;20226;-69
2022/07/27 14:15:53;;;;;;;1.08;0.40;;;;;;;;;;21076672;28;20223;-69
2022/07/27 14:25:56;;;;;;;0.60;0.38;;;;;;;;;;21078086;28;20223;-69
2022/07/27 14:35:58;;;;;;;1.75;0.60;;;;;;;;;;21076326;28;20214;-69
2022/07/27 14:46:00;;;;;;;1.55;0.55;;;;;;;;;;21082071;28;20215;-69
2022/07/27 14:56:02;;;;;;;2.13;0.40;;;;;;;;;;21076404;28;20284;-69
2022/07/27 15:06:04;;;;;;;1.27;0.32;;;;;;;;;;21124282;28;20273;-69
2022/07/27 15:16:05;;;;;;;2.33;0.50;;;;;;;;;;21072792;28;20220;-69
2022/07/27 15:26:07;;;;;;;0.85;0.35;;;;;;;;;;21060282;28;20586;-69
2022/07/27 15:36:10;;;;;;;0.90;0.50;;;;;;;;;;21066939;28;20228;-69
2022/07/27 15:46:12;;;;;;;0.77;0.40;;;;;;;;;;21065216;28;20207;-69
2022/07/27 15:56:14;;;;;;;0.88;0.30;;;;;;;;;;21069611;28;20243;-69
2022/07/27 16:06:16;;;;;;;1.13;0.40;;;28.40;69.40;;;;;;21069921;28;20211;-69
2022/07/27 16:16:23;;;;;;;1.05;0.30;;;;;;;;;;21071393;28;20211;-69
2022/07/27 16:26:26;;;;;;;0.73;0.30;;;27.90;74.10;;;;;;21070058;28;20698;-70
2022/07/27 16:36:27;;;;;;;0.98;0.38;;;;;;;;;;21059464;28;20297;-69
2022/07/27 16:46:29;;;;;;;1.98;0.77;;;;;;;;;;21065023;28;20207;-69
2022/07/27 16:56:31;;;;;;;1.77;0.47;;;;;;;;;;21066008;28;20214;-69
2022/07/27 17:06:34;;;;;;;0.95;0.35;;;;;;;;;;21053415;28;20215;-69
2022/07/27 17:16:36;;;;;;;1.15;0.50;;;;;;;;;;21059688;28;20238;-69
2022/07/27 17:26:37;;;;;;;0.93;0.30;;;;;;;;;;21041697;28;20232;-69
2022/07/27 17:36:39;;;;;;;1.25;0.63;;;;;;;;;;21137796;28;20217;-69
2022/07/27 17:46:41;;;;;;;1.23;0.43;;;;;;;;;;21149701;28;20206;-69
2022/07/27 17:56:43;;;;;;;1.17;0.40;;;;;;;;;;21083989;28;20283;-70
2022/07/27 18:06:46;;;;;;;1.38;0.40;;;26.20;67.00;;;;;;21087219;28;20787;-69
2022/07/27 18:16:48;;;;;;;1.45;0.30;;;;;;;;;;21111110;28;20587;-68
2022/07/27 18:26:49;;;;;;;0.47;0.30;;;25.80;73.20;;;;;;21074008;28;20276;-68
2022/07/27 18:36:51;;;;;;;1.85;0.50;;;;;;;;;;21064825;28;20211;-68
2022/07/27 18:46:53;;;;;;;0.73;0.40;;;;;;;;;;21074759;28;20306;-68
2022/07/27 18:56:55;;;;;;;1.85;0.30;;;;;;;;;;21055060;28;20689;-68
2022/07/27 19:06:56;;;;;;;0.52;0.25;;;;;;;;;;21061018;28;20206;-68
2022/07/27 19:16:58;;;;;;;0.90;0.32;;;;;;;;;;21106611;28;20279;-68
2022/07/27 19:27:01;;;;;;;2.80;0.50;;;;;;;;;;21075174;28;20661;-69
2022/07/27 19:37:02;;;;;;;0.63;0.30;;;;;;;;;;21069292;28;20217;-68
2022/07/27 19:47:04;;;;;;;2.22;0.50;;;;;;;;;;21068782;28;20207;-69
2022/07/27 19:57:06;;;;;;;0.77;0.40;;;;;;;;;;21058425;28;20219;-69
2022/07/27 20:07:08;;;;;;;1.00;0.30;;;;;;;;;;21059226;28;20253;-69
2022/07/27 20:17:10;;;;;;;1.35;0.47;;;;;;;;;;21056535;28;20276;-70
2022/07/27 20:27:12;;;;;;;0.57;0.40;;;;;;;;;;21059414;28;20226;-68
2022/07/27 20:37:14;;;;;;;0.38;0.30;;;;;;;;;;21057285;28;20224;-68
2022/07/27 20:47:15;;;;;;;0.80;0.40;;;;;;;;;;21057592;28;20202;-68
2022/07/27 20:57:17;;;;;;;0.63;0.40;;;;;;;;;;21056945;28;20694;-69
2022/07/27 21:07:19;;;;;;;0.75;0.40;;;;;;;;;;21056491;28;20436;-68
2022/07/27 21:17:22;;;;;;;1.52;0.40;;;;;;;;;;21059767;28;20230;-67
2022/07/27 21:27:24;;;;;;;3.35;0.52;;;;;;;;;;21065404;28;20252;-68
2022/07/27 21:37:26;;;;;;;0.98;0.45;;;;;;;;;;21081644;28;20224;-68
2022/07/27 21:47:27;;;;;;;3.60;0.40;;;;;;;;;;21085473;28;20552;-68
2022/07/27 21:57:29;;;;;;;1.58;0.32;;;;;;;;;;21081069;28;20698;-69
2022/07/27 22:07:31;;;;;;;0.60;0.30;;;;;;;;;;21060784;28;20229;-68
2022/07/27 22:17:32;;;;;;;0.88;0.40;;;;;;;;;;21079305;28;20220;-68
2022/07/27 22:27:34;;;;;;;0.32;0.30;;;;;;;;;;21077652;28;20222;-68
2022/07/27 22:37:36;;;;;;;0.90;0.25;;;;;;;;;;21075405;28;20213;-67
2022/07/27 22:47:38;;;;;;;0.32;0.30;;;;;;;;;;21076185;28;20247;-68
2022/07/27 22:57:39;;;;;;;0.70;0.30;;;;;;;;;;21075324;28;20214;-68
2022/07/27 23:07:41;;;;;;;2.08;0.40;;;;;;;;;;21075618;28;20201;-68
2022/07/27 23:18:01;;;;;;;0.25;0.22;;;;;;;;;;21048405;28;20260;-68
2022/07/27 23:28:22;;;;;;;0.77;0.40;;;;;;;;;;21075108;28;20290;-68
2022/07/27 23:38:24;;;;;;;1.13;0.45;;;;;;;;;;21053155;28;20288;-68
2022/07/27 23:48:26;;;;;;;0.57;0.40;;;;;;;;;;21071046;28;20212;-67
2022/07/27 23:58:28;;;;;;;1.30;0.40;;;;;;;;;;21071296;28;20217;-68
